sensor_id;sensor_type;location;lat;lon;timestamp;temperature;humidity
41471;DHT22;27211;51.220;5.308;2023-07-31T16:16:06;18.00;99.90
41471;DHT22;27211;51.220;5.308;2023-07-31T16:18:35;18.10;99.90
41471;DHT22;27211;51.220;5.308;2023-07-31T16:21:03;18.00;99.90
41471;DHT22;27211;51.220;5.308;2023-07-31T16:23:31;17.90;99.90
41471;DHT22;27211;51.220;5.308;2023-07-31T16:25:58;18.00;99.90
41471;DHT22;27211;51.220;5.308;2023-07-31T16:28:27;17.90;99.90
41471;DHT22;27211;51.220;5.308;2023-07-31T16:30:55;18.00;99.90
41471;DHT22;27211;51.220;5.308;2023-07-31T16:33:22;18.00;99.90
41471;DHT22;27211;51.220;5.308;2023-07-31T16:35:50;17.90;99.90
41471;DHT22;27211;51.220;5.308;2023-07-31T16:38:25;18.00;99.90
41471;DHT22;27211;51.220;5.308;2023-07-31T16:40:53;18.10;99.90
41471;DHT22;27211;51.220;5.308;2023-07-31T16:43:21;18.00;99.90
41471;DHT22;27211;51.220;5.308;2023-07-31T16:45:50;18.00;99.90
41471;DHT22;27211;51.220;5.308;2023-07-31T16:48:24;17.90;99.90
41471;DHT22;27211;51.220;5.308;2023-07-31T16:50:52;18.00;99.90
41471;DHT22;27211;51.220;5.308;2023-07-31T16:53:20;18.00;99.90
41471;DHT22;27211;51.220;5.308;2023-07-31T16:55:48;17.90;99.90
41471;DHT22;27211;51.220;5.308;2023-07-31T16:58:16;17.90;99.90
41471;DHT22;27211;51.220;5.308;2023-07-31T17:00:52;17.80;99.90
41471;DHT22;27211;51.220;5.308;2023-07-31T17:03:27;17.90;99.90
41471;DHT22;27211;51.220;5.308;2023-07-31T17:05:58;18.00;99.90
41471;DHT22;27211;51.220;5.308;2023-07-31T17:08:27;18.10;99.90
41471;DHT22;27211;51.220;5.308;2023-07-31T17:11:02;18.10;99.90
41471;DHT22;27211;51.220;5.308;2023-07-31T17:13:30;18.10;99.90
41471;DHT22;27211;51.220;5.308;2023-07-31T17:15:59;18.10;99.90
41471;DHT22;27211;51.220;5.308;2023-07-31T17:18:35;18.10;99.90
41471;DHT22;27211;51.220;5.308;2023-07-31T17:21:03;18.00;99.90
41471;DHT22;27211;51.220;5.308;2023-07-31T17:23:32;18.10;99.90
41471;DHT22;27211;51.220;5.308;2023-07-31T17:26:00;18.00;99.90
41471;DHT22;27211;51.220;5.308;2023-07-31T17:28:29;18.00;99.90
41471;DHT22;27211;51.220;5.308;2023-07-31T17:30:58;18.00;99.90
41471;DHT22;27211;51.220;5.308;2023-07-31T17:33:26;18.00;99.90
41471;DHT22;27211;51.220;5.308;2023-07-31T17:35:55;18.00;99.90
41471;DHT22;27211;51.220;5.308;2023-07-31T17:38:22;18.00;99.90
41471;DHT22;27211;51.220;5.308;2023-07-31T17:40:51;18.00;99.90
41471;DHT22;27211;51.220;5.308;2023-07-31T17:43:18;17.90;99.90
41471;DHT22;27211;51.220;5.308;2023-07-31T17:45:54;18.00;99.90
41471;DHT22;27211;51.220;5.308;2023-07-31T17:48:21;18.00;99.90
41471;DHT22;27211;51.220;5.308;2023-07-31T17:50:50;18.00;99.90
41471;DHT22;27211;51.220;5.308;2023-07-31T17:53:17;18.00;99.90
41471;DHT22;27211;51.220;5.308;2023-07-31T17:55:52;18.00;99.90
41471;DHT22;27211;51.220;5.308;2023-07-31T17:58:27;18.00;99.90
41471;DHT22;27211;51.220;5.308;2023-07-31T18:00:55;18.00;99.90
41471;DHT22;27211;51.220;5.308;2023-07-31T18:03:23;18.00;99.90
41471;DHT22;27211;51.220;5.308;2023-07-31T18:05:51;18.00;99.90
41471;DHT22;27211;51.220;5.308;2023-07-31T18:08:18;18.10;99.90
41471;DHT22;27211;51.220;5.308;2023-07-31T18:10:46;18.00;99.90
41471;DHT22;27211;51.220;5.308;2023-07-31T18:13:14;18.00;99.90
41471;DHT22;27211;51.220;5.308;2023-07-31T18:15:46;18.00;99.90
41471;DHT22;27211;51.220;5.308;2023-07-31T18:18:13;17.90;99.90
41471;DHT22;27211;51.220;5.308;2023-07-31T18:20:41;18.00;99.90
41471;DHT22;27211;51.220;5.308;2023-07-31T18:23:09;18.00;99.90
41471;DHT22;27211;51.220;5.308;2023-07-31T18:25:39;18.00;99.90
41471;DHT22;27211;51.220;5.308;2023-07-31T18:28:06;18.00;99.90
41471;DHT22;27211;51.220;5.308;2023-07-31T18:30:34;18.00;99.90
41471;DHT22;27211;51.220;5.308;2023-07-31T18:33:02;17.90;99.90
41471;DHT22;27211;51.220;5.308;2023-07-31T18:35:38;18.00;99.90
41471;DHT22;27211;51.220;5.308;2023-07-31T18:38:06;18.10;99.90
41471;DHT22;27211;51.220;5.308;2023-07-31T18:40:35;18.10;99.90
41471;DHT22;27211;51.220;5.308;2023-07-31T18:43:02;18.20;99.90
41471;DHT22;27211;51.220;5.308;2023-07-31T18:45:31;18.20;99.90
41471;DHT22;27211;51.220;5.308;2023-07-31T18:48:05;18.20;99.90
41471;DHT22;27211;51.220;5.308;2023-07-31T18:50:33;18.20;99.90
41471;DHT22;27211;51.220;5.308;2023-07-31T18:53:01;18.20;99.90
41471;DHT22;27211;51.220;5.308;2023-07-31T18:55:29;18.20;99.90
41471;DHT22;27211;51.220;5.308;2023-07-31T18:57:57;18.20;99.90
41471;DHT22;27211;51.220;5.308;2023-07-31T19:00:25;18.10;99.90
41471;DHT22;27211;51.220;5.308;2023-07-31T19:02:53;18.20;99.90
41471;DHT22;27211;51.220;5.308;2023-07-31T19:05:21;18.20;99.90
41471;DHT22;27211;51.220;5.308;2023-07-31T19:07:49;18.30;99.90
41471;DHT22;27211;51.220;5.308;2023-07-31T19:10:18;18.30;99.90
41471;DHT22;27211;51.220;5.308;2023-07-31T19:12:46;18.30;99.90
41471;DHT22;27211;51.220;5.308;2023-07-31T19:15:14;18.40;99.90
41471;DHT22;27211;51.220;5.308;2023-07-31T19:17:42;18.30;99.90
41471;DHT22;27211;51.220;5.308;2023-07-31T19:20:11;18.30;99.90
41471;DHT22;27211;51.220;5.308;2023-07-31T19:22:39;18.40;99.90
41471;DHT22;27211;51.220;5.308;2023-07-31T19:25:07;18.40;99.90
41471;DHT22;27211;51.220;5.308;2023-07-31T19:27:33;18.30;99.90
41471;DHT22;27211;51.220;5.308;2023-07-31T19:30:08;18.30;99.90
41471;DHT22;27211;51.220;5.308;2023-07-31T19:32:36;18.30;99.90
41471;DHT22;27211;51.220;5.308;2023-07-31T19:35:03;18.30;99.90
41471;DHT22;27211;51.220;5.308;2023-07-31T19:37:31;18.20;99.90
41471;DHT22;27211;51.220;5.308;2023-07-31T19:39:58;18.20;99.90
41471;DHT22;27211;51.220;5.308;2023-07-31T19:42:26;18.20;99.90
41471;DHT22;27211;51.220;5.308;2023-07-31T19:44:54;18.10;99.90
41471;DHT22;27211;51.220;5.308;2023-07-31T19:47:21;18.20;99.90
41471;DHT22;27211;51.220;5.308;2023-07-31T19:49:49;18.20;99.90
41471;DHT22;27211;51.220;5.308;2023-07-31T19:52:17;18.10;99.90
41471;DHT22;27211;51.220;5.308;2023-07-31T19:54:45;18.10;99.90
41471;DHT22;27211;51.220;5.308;2023-07-31T19:57:13;18.10;99.90
41471;DHT22;27211;51.220;5.308;2023-07-31T19:59:41;18.20;99.90
41471;DHT22;27211;51.220;5.308;2023-07-31T20:02:09;18.20;99.90
41471;DHT22;27211;51.220;5.308;2023-07-31T20:04:37;18.30;99.90
41471;DHT22;27211;51.220;5.308;2023-07-31T20:07:05;18.30;99.90
41471;DHT22;27211;51.220;5.308;2023-07-31T20:09:33;18.10;99.90
41471;DHT22;27211;51.220;5.308;2023-07-31T20:12:01;18.30;99.90
41471;DHT22;27211;51.220;5.308;2023-07-31T20:14:29;18.40;99.90
41471;DHT22;27211;51.220;5.308;2023-07-31T20:16:57;18.40;99.90
41471;DHT22;27211;51.220;5.308;2023-07-31T20:19:33;18.40;99.90
41471;DHT22;27211;51.220;5.308;2023-07-31T20:22:01;18.50;99.90
41471;DHT22;27211;51.220;5.308;2023-07-31T20:24:29;18.50;99.90
41471;DHT22;27211;51.220;5.308;2023-07-31T20:26:57;18.50;99.90
41471;DHT22;27211;51.220;5.308;2023-07-31T20:29:25;18.40;99.90
41471;DHT22;27211;51.220;5.308;2023-07-31T20:31:53;18.40;99.90
41471;DHT22;27211;51.220;5.308;2023-07-31T20:34:20;18.50;99.90
41471;DHT22;27211;51.220;5.308;2023-07-31T20:36:48;18.50;99.90
41471;DHT22;27211;51.220;5.308;2023-07-31T20:39:17;18.40;99.90
41471;DHT22;27211;51.220;5.308;2023-07-31T20:41:44;18.30;99.90
41471;DHT22;27211;51.220;5.308;2023-07-31T20:44:15;18.50;99.90
41471;DHT22;27211;51.220;5.308;2023-07-31T20:46:43;18.60;99.90
41471;DHT22;27211;51.220;5.308;2023-07-31T20:49:11;18.60;99.90
41471;DHT22;27211;51.220;5.308;2023-07-31T20:51:40;18.50;99.90
41471;DHT22;27211;51.220;5.308;2023-07-31T20:54:12;18.40;99.90
41471;DHT22;27211;51.220;5.308;2023-07-31T20:56:39;18.40;99.90
41471;DHT22;27211;51.220;5.308;2023-07-31T20:59:07;18.30;99.90
41471;DHT22;27211;51.220;5.308;2023-07-31T21:01:36;18.40;99.90
41471;DHT22;27211;51.220;5.308;2023-07-31T21:04:05;18.40;99.90
41471;DHT22;27211;51.220;5.308;2023-07-31T21:06:32;18.30;99.90
41471;DHT22;27211;51.220;5.308;2023-07-31T21:09:07;18.30;99.90
41471;DHT22;27211;51.220;5.308;2023-07-31T21:11:36;18.30;99.90
41471;DHT22;27211;51.220;5.308;2023-07-31T21:14:04;18.40;99.90
41471;DHT22;27211;51.220;5.308;2023-07-31T21:16:32;18.40;99.90
41471;DHT22;27211;51.220;5.308;2023-07-31T21:19:01;18.50;99.90
41471;DHT22;27211;51.220;5.308;2023-07-31T21:21:29;18.40;99.90
41471;DHT22;27211;51.220;5.308;2023-07-31T21:24:01;18.40;99.90
41471;DHT22;27211;51.220;5.308;2023-07-31T21:26:30;18.40;99.90
41471;DHT22;27211;51.220;5.308;2023-07-31T21:28:57;18.40;99.90
41471;DHT22;27211;51.220;5.308;2023-07-31T21:31:26;18.30;99.90
41471;DHT22;27211;51.220;5.308;2023-07-31T21:33:54;18.30;99.90
41471;DHT22;27211;51.220;5.308;2023-07-31T21:36:22;18.30;99.90
41471;DHT22;27211;51.220;5.308;2023-07-31T21:38:50;18.40;99.90
41471;DHT22;27211;51.220;5.308;2023-07-31T21:41:26;18.50;99.90
41471;DHT22;27211;51.220;5.308;2023-07-31T21:43:54;18.50;99.90
41471;DHT22;27211;51.220;5.308;2023-07-31T21:46:23;18.50;99.90
41471;DHT22;27211;51.220;5.308;2023-07-31T21:48:51;18.50;99.90
41471;DHT22;27211;51.220;5.308;2023-07-31T21:51:19;18.50;99.90
41471;DHT22;27211;51.220;5.308;2023-07-31T21:53:47;18.50;99.90
41471;DHT22;27211;51.220;5.308;2023-07-31T21:56:16;18.40;99.90
41471;DHT22;27211;51.220;5.308;2023-07-31T21:58:51;18.50;99.90
41471;DHT22;27211;51.220;5.308;2023-07-31T22:01:19;18.40;99.90
41471;DHT22;27211;51.220;5.308;2023-07-31T22:03:50;18.50;99.90
41471;DHT22;27211;51.220;5.308;2023-07-31T22:06:18;18.60;99.90
41471;DHT22;27211;51.220;5.308;2023-07-31T22:08:47;18.30;99.90
41471;DHT22;27211;51.220;5.308;2023-07-31T22:11:16;18.20;99.90
41471;DHT22;27211;51.220;5.308;2023-07-31T22:13:46;18.00;99.90
41471;DHT22;27211;51.220;5.308;2023-07-31T22:16:14;18.10;99.90
41471;DHT22;27211;51.220;5.308;2023-07-31T22:18:43;18.10;99.90
